sensor_id;sensor_type;location;lat;lon;timestamp;P1;durP1;ratioP1;P2;durP2;ratioP2
32297;SDS011;18782;48.984;8.548;2022-08-03T00:01:30;3.13;;;1.80;;
32297;SDS011;18782;48.984;8.548;2022-08-03T00:03:58;3.25;;;1.92;;
32297;SDS011;18782;48.984;8.548;2022-08-03T00:06:27;2.38;;;1.70;;
32297;SDS011;18782;48.984;8.548;2022-08-03T00:09:01;4.35;;;1.85;;
32297;SDS011;18782;48.984;8.548;2022-08-03T00:11:29;1.77;;;1.65;;
32297;SDS011;18782;48.984;8.548;2022-08-03T00:13:57;3.38;;;1.95;;
32297;SDS011;18782;48.984;8.548;2022-08-03T00:16:25;1.98;;;1.70;;
32297;SDS011;18782;48.984;8.548;2022-08-03T00:18:52;2.30;;;1.90;;
32297;SDS011;18782;48.984;8.548;2022-08-03T00:21:20;2.67;;;2.10;;
32297;SDS011;18782;48.984;8.548;2022-08-03T00:23:49;3.42;;;2.42;;
32297;SDS011;18782;48.984;8.548;2022-08-03T00:26:18;2.80;;;1.95;;
32297;SDS011;18782;48.984;8.548;2022-08-03T00:28:45;3.20;;;2.13;;
32297;SDS011;18782;48.984;8.548;2022-08-03T00:31:13;3.67;;;1.85;;
32297;SDS011;18782;48.984;8.548;2022-08-03T00:33:41;3.60;;;2.17;;
32297;SDS011;18782;48.984;8.548;2022-08-03T00:36:25;4.35;;;1.92;;
32297;SDS011;18782;48.984;8.548;2022-08-03T00:38:54;5.22;;;3.03;;
32297;SDS011;18782;48.984;8.548;2022-08-03T00:41:22;4.78;;;2.90;;
32297;SDS011;18782;48.984;8.548;2022-08-03T00:43:50;4.32;;;3.45;;
32297;SDS011;18782;48.984;8.548;2022-08-03T00:46:17;4.88;;;2.42;;
32297;SDS011;18782;48.984;8.548;2022-08-03T00:48:47;3.50;;;1.90;;
32297;SDS011;18782;48.984;8.548;2022-08-03T00:51:15;3.20;;;2.10;;
32297;SDS011;18782;48.984;8.548;2022-08-03T00:53:44;3.40;;;2.05;;
32297;SDS011;18782;48.984;8.548;2022-08-03T00:56:13;3.00;;;2.17;;
32297;SDS011;18782;48.984;8.548;2022-08-03T00:58:42;2.83;;;1.92;;
32297;SDS011;18782;48.984;8.548;2022-08-03T01:01:11;3.00;;;2.08;;
32297;SDS011;18782;48.984;8.548;2022-08-03T01:03:39;3.17;;;1.98;;
32297;SDS011;18782;48.984;8.548;2022-08-03T01:06:10;3.08;;;2.38;;
32297;SDS011;18782;48.984;8.548;2022-08-03T01:08:46;3.45;;;1.83;;
32297;SDS011;18782;48.984;8.548;2022-08-03T01:11:23;2.28;;;1.73;;
32297;SDS011;18782;48.984;8.548;2022-08-03T01:14:01;3.15;;;2.00;;
32297;SDS011;18782;48.984;8.548;2022-08-03T01:16:47;3.08;;;2.20;;
32297;SDS011;18782;48.984;8.548;2022-08-03T01:19:30;4.57;;;2.35;;
32297;SDS011;18782;48.984;8.548;2022-08-03T01:22:10;2.88;;;2.17;;
32297;SDS011;18782;48.984;8.548;2022-08-03T01:24:49;3.58;;;2.20;;
32297;SDS011;18782;48.984;8.548;2022-08-03T01:27:29;3.95;;;2.50;;
32297;SDS011;18782;48.984;8.548;2022-08-03T01:30:10;3.47;;;2.15;;
32297;SDS011;18782;48.984;8.548;2022-08-03T01:32:40;3.20;;;2.03;;
32297;SDS011;18782;48.984;8.548;2022-08-03T01:35:28;2.45;;;2.25;;
32297;SDS011;18782;48.984;8.548;2022-08-03T01:38:04;2.42;;;2.00;;
32297;SDS011;18782;48.984;8.548;2022-08-03T01:40:36;3.22;;;2.10;;
32297;SDS011;18782;48.984;8.548;2022-08-03T01:43:06;2.90;;;2.20;;
32297;SDS011;18782;48.984;8.548;2022-08-03T01:45:38;2.58;;;2.10;;
32297;SDS011;18782;48.984;8.548;2022-08-03T01:48:06;3.13;;;2.25;;
32297;SDS011;18782;48.984;8.548;2022-08-03T01:50:35;3.15;;;2.22;;
32297;SDS011;18782;48.984;8.548;2022-08-03T01:53:04;3.22;;;2.00;;
32297;SDS011;18782;48.984;8.548;2022-08-03T01:55:33;2.72;;;2.13;;
32297;SDS011;18782;48.984;8.548;2022-08-03T01:58:03;4.95;;;2.15;;
32297;SDS011;18782;48.984;8.548;2022-08-03T02:00:33;2.70;;;2.50;;
32297;SDS011;18782;48.984;8.548;2022-08-03T02:03:04;4.25;;;2.13;;
32297;SDS011;18782;48.984;8.548;2022-08-03T02:05:33;4.90;;;3.70;;
32297;SDS011;18782;48.984;8.548;2022-08-03T02:08:02;4.35;;;3.20;;
32297;SDS011;18782;48.984;8.548;2022-08-03T02:10:33;3.92;;;2.58;;
32297;SDS011;18782;48.984;8.548;2022-08-03T02:13:03;2.95;;;2.17;;
32297;SDS011;18782;48.984;8.548;2022-08-03T02:15:34;3.25;;;2.05;;
32297;SDS011;18782;48.984;8.548;2022-08-03T02:18:04;3.95;;;2.40;;
32297;SDS011;18782;48.984;8.548;2022-08-03T02:20:34;3.03;;;2.20;;
32297;SDS011;18782;48.984;8.548;2022-08-03T02:23:04;2.45;;;2.20;;
32297;SDS011;18782;48.984;8.548;2022-08-03T02:25:32;7.28;;;2.72;;
32297;SDS011;18782;48.984;8.548;2022-08-03T02:28:07;6.70;;;4.00;;
32297;SDS011;18782;48.984;8.548;2022-08-03T02:30:38;3.42;;;2.90;;
32297;SDS011;18782;48.984;8.548;2022-08-03T02:33:11;3.67;;;2.35;;
32297;SDS011;18782;48.984;8.548;2022-08-03T02:35:44;4.97;;;2.38;;
32297;SDS011;18782;48.984;8.548;2022-08-03T02:38:16;2.95;;;1.98;;
32297;SDS011;18782;48.984;8.548;2022-08-03T02:40:46;2.92;;;2.50;;
32297;SDS011;18782;48.984;8.548;2022-08-03T02:43:18;2.42;;;2.17;;
32297;SDS011;18782;48.984;8.548;2022-08-03T02:45:48;3.58;;;2.72;;
32297;SDS011;18782;48.984;8.548;2022-08-03T02:48:19;3.85;;;2.22;;
32297;SDS011;18782;48.984;8.548;2022-08-03T02:53:20;3.28;;;2.40;;
32297;SDS011;18782;48.984;8.548;2022-08-03T02:55:49;3.80;;;1.90;;
32297;SDS011;18782;48.984;8.548;2022-08-03T02:58:19;6.90;;;5.82;;
32297;SDS011;18782;48.984;8.548;2022-08-03T03:00:50;5.28;;;2.97;;
32297;SDS011;18782;48.984;8.548;2022-08-03T03:03:21;4.32;;;2.88;;
32297;SDS011;18782;48.984;8.548;2022-08-03T03:05:52;2.60;;;2.40;;
32297;SDS011;18782;48.984;8.548;2022-08-03T03:08:23;2.63;;;2.20;;
32297;SDS011;18782;48.984;8.548;2022-08-03T03:10:54;3.72;;;2.70;;
32297;SDS011;18782;48.984;8.548;2022-08-03T03:13:23;2.80;;;2.08;;
32297;SDS011;18782;48.984;8.548;2022-08-03T03:15:51;2.63;;;2.15;;
32297;SDS011;18782;48.984;8.548;2022-08-03T03:18:22;2.85;;;2.30;;
32297;SDS011;18782;48.984;8.548;2022-08-03T03:20:51;3.53;;;2.38;;
32297;SDS011;18782;48.984;8.548;2022-08-03T03:23:20;3.30;;;1.85;;
32297;SDS011;18782;48.984;8.548;2022-08-03T03:25:49;3.30;;;2.30;;
32297;SDS011;18782;48.984;8.548;2022-08-03T03:28:18;2.92;;;2.20;;
32297;SDS011;18782;48.984;8.548;2022-08-03T03:30:46;3.22;;;2.40;;
32297;SDS011;18782;48.984;8.548;2022-08-03T03:33:18;3.05;;;2.30;;
32297;SDS011;18782;48.984;8.548;2022-08-03T03:35:47;3.00;;;2.30;;
32297;SDS011;18782;48.984;8.548;2022-08-03T03:38:17;3.17;;;2.50;;
32297;SDS011;18782;48.984;8.548;2022-08-03T03:40:44;3.60;;;2.40;;
32297;SDS011;18782;48.984;8.548;2022-08-03T03:43:13;3.70;;;2.40;;
32297;SDS011;18782;48.984;8.548;2022-08-03T03:45:40;2.97;;;2.35;;
32297;SDS011;18782;48.984;8.548;2022-08-03T03:48:08;3.15;;;1.90;;
32297;SDS011;18782;48.984;8.548;2022-08-03T03:50:36;4.22;;;1.95;;
32297;SDS011;18782;48.984;8.548;2022-08-03T03:53:09;2.65;;;2.22;;
32297;SDS011;18782;48.984;8.548;2022-08-03T03:55:41;2.70;;;2.13;;
32297;SDS011;18782;48.984;8.548;2022-08-03T03:58:28;2.83;;;1.90;;
32297;SDS011;18782;48.984;8.548;2022-08-03T04:00:57;3.50;;;2.35;;
32297;SDS011;18782;48.984;8.548;2022-08-03T04:03:25;3.08;;;2.20;;
32297;SDS011;18782;48.984;8.548;2022-08-03T04:05:53;2.42;;;1.95;;
32297;SDS011;18782;48.984;8.548;2022-08-03T04:08:40;5.78;;;3.03;;
32297;SDS011;18782;48.984;8.548;2022-08-03T04:11:26;4.03;;;3.15;;
32297;SDS011;18782;48.984;8.548;2022-08-03T04:13:58;4.13;;;2.33;;
32297;SDS011;18782;48.984;8.548;2022-08-03T04:16:30;7.00;;;2.50;;
32297;SDS011;18782;48.984;8.548;2022-08-03T04:19:04;4.45;;;2.95;;
32297;SDS011;18782;48.984;8.548;2022-08-03T04:21:37;3.97;;;2.80;;
32297;SDS011;18782;48.984;8.548;2022-08-03T04:24:09;3.30;;;2.38;;
32297;SDS011;18782;48.984;8.548;2022-08-03T04:26:40;3.80;;;2.38;;
32297;SDS011;18782;48.984;8.548;2022-08-03T04:29:17;3.22;;;2.50;;
32297;SDS011;18782;48.984;8.548;2022-08-03T04:31:46;3.30;;;2.90;;
32297;SDS011;18782;48.984;8.548;2022-08-03T04:34:15;5.25;;;2.65;;
32297;SDS011;18782;48.984;8.548;2022-08-03T04:36:44;4.07;;;3.63;;
32297;SDS011;18782;48.984;8.548;2022-08-03T04:39:18;3.80;;;2.28;;
32297;SDS011;18782;48.984;8.548;2022-08-03T04:41:52;5.22;;;4.20;;
32297;SDS011;18782;48.984;8.548;2022-08-03T04:44:42;2.95;;;2.20;;
32297;SDS011;18782;48.984;8.548;2022-08-03T04:47:11;6.00;;;2.55;;
32297;SDS011;18782;48.984;8.548;2022-08-03T04:49:38;3.08;;;2.47;;
32297;SDS011;18782;48.984;8.548;2022-08-03T04:52:07;3.90;;;2.65;;
32297;SDS011;18782;48.984;8.548;2022-08-03T04:54:39;4.80;;;2.75;;
32297;SDS011;18782;48.984;8.548;2022-08-03T04:57:14;4.32;;;2.40;;
32297;SDS011;18782;48.984;8.548;2022-08-03T04:59:48;4.28;;;2.58;;
32297;SDS011;18782;48.984;8.548;2022-08-03T05:02:27;2.65;;;2.45;;
32297;SDS011;18782;48.984;8.548;2022-08-03T05:04:56;4.78;;;2.58;;
32297;SDS011;18782;48.984;8.548;2022-08-03T05:07:24;4.18;;;2.72;;
32297;SDS011;18782;48.984;8.548;2022-08-03T05:10:04;3.85;;;2.72;;
32297;SDS011;18782;48.984;8.548;2022-08-03T05:12:41;4.45;;;2.40;;
32297;SDS011;18782;48.984;8.548;2022-08-03T05:15:10;3.88;;;2.63;;
32297;SDS011;18782;48.984;8.548;2022-08-03T05:17:38;4.45;;;2.13;;
32297;SDS011;18782;48.984;8.548;2022-08-03T05:20:07;2.47;;;2.00;;
32297;SDS011;18782;48.984;8.548;2022-08-03T05:22:35;3.65;;;2.20;;
32297;SDS011;18782;48.984;8.548;2022-08-03T05:25:05;12.30;;;4.63;;
32297;SDS011;18782;48.984;8.548;2022-08-03T05:27:33;9.82;;;3.97;;
32297;SDS011;18782;48.984;8.548;2022-08-03T05:30:01;10.25;;;3.90;;
32297;SDS011;18782;48.984;8.548;2022-08-03T05:32:49;11.18;;;4.00;;
32297;SDS011;18782;48.984;8.548;2022-08-03T05:35:18;8.93;;;3.17;;
32297;SDS011;18782;48.984;8.548;2022-08-03T05:38:06;3.80;;;2.63;;
32297;SDS011;18782;48.984;8.548;2022-08-03T05:40:35;4.38;;;2.50;;
32297;SDS011;18782;48.984;8.548;2022-08-03T05:43:04;7.03;;;3.33;;
32297;SDS011;18782;48.984;8.548;2022-08-03T05:45:32;7.47;;;3.25;;
32297;SDS011;18782;48.984;8.548;2022-08-03T05:48:00;8.60;;;3.85;;
32297;SDS011;18782;48.984;8.548;2022-08-03T05:50:27;3.70;;;2.88;;
32297;SDS011;18782;48.984;8.548;2022-08-03T05:52:55;5.53;;;2.45;;
32297;SDS011;18782;48.984;8.548;2022-08-03T05:55:24;6.88;;;2.42;;
32297;SDS011;18782;48.984;8.548;2022-08-03T05:57:53;4.68;;;2.70;;
32297;SDS011;18782;48.984;8.548;2022-08-03T06:00:22;5.43;;;2.72;;
32297;SDS011;18782;48.984;8.548;2022-08-03T06:02:51;5.43;;;2.33;;
32297;SDS011;18782;48.984;8.548;2022-08-03T06:05:18;8.75;;;2.80;;
32297;SDS011;18782;48.984;8.548;2022-08-03T06:07:46;4.53;;;2.15;;
32297;SDS011;18782;48.984;8.548;2022-08-03T06:10:14;5.68;;;2.42;;
32297;SDS011;18782;48.984;8.548;2022-08-03T06:13:03;10.18;;;2.33;;
32297;SDS011;18782;48.984;8.548;2022-08-03T06:15:31;4.45;;;2.40;;
32297;SDS011;18782;48.984;8.548;2022-08-03T06:18:00;5.05;;;1.80;;
32297;SDS011;18782;48.984;8.548;2022-08-03T06:20:28;3.97;;;2.00;;
32297;SDS011;18782;48.984;8.548;2022-08-03T06:22:56;3.58;;;2.40;;
32297;SDS011;18782;48.984;8.548;2022-08-03T06:25:26;4.50;;;2.28;;
32297;SDS011;18782;48.984;8.548;2022-08-03T06:27:54;6.28;;;2.42;;
32297;SDS011;18782;48.984;8.548;2022-08-03T06:30:23;4.25;;;1.90;;
32297;SDS011;18782;48.984;8.548;2022-08-03T06:32:51;4.57;;;2.35;;
32297;SDS011;18782;48.984;8.548;2022-08-03T06:35:19;4.93;;;1.95;;
32297;SDS011;18782;48.984;8.548;2022-08-03T06:37:47;3.17;;;2.00;;
32297;SDS011;18782;48.984;8.548;2022-08-03T06:40:17;5.50;;;2.08;;
32297;SDS011;18782;48.984;8.548;2022-08-03T06:42:49;2.65;;;1.70;;
32297;SDS011;18782;48.984;8.548;2022-08-03T06:45:17;5.50;;;1.90;;
32297;SDS011;18782;48.984;8.548;2022-08-03T06:47:46;5.28;;;1.70;;
32297;SDS011;18782;48.984;8.548;2022-08-03T06:50:14;7.05;;;1.88;;
32297;SDS011;18782;48.984;8.548;2022-08-03T06:52:45;6.60;;;1.88;;
32297;SDS011;18782;48.984;8.548;2022-08-03T06:55:13;3.50;;;1.90;;
32297;SDS011;18782;48.984;8.548;2022-08-03T06:57:41;8.55;;;2.13;;
32297;SDS011;18782;48.984;8.548;2022-08-03T07:00:09;7.20;;;1.90;;
32297;SDS011;18782;48.984;8.548;2022-08-03T07:02:38;4.45;;;1.88;;
32297;SDS011;18782;48.984;8.548;2022-08-03T07:05:07;8.07;;;1.70;;
32297;SDS011;18782;48.984;8.548;2022-08-03T07:07:36;5.15;;;1.65;;
32297;SDS011;18782;48.984;8.548;2022-08-03T07:10:05;4.40;;;2.15;;
32297;SDS011;18782;48.984;8.548;2022-08-03T07:12:34;5.95;;;2.08;;
32297;SDS011;18782;48.984;8.548;2022-08-03T07:15:18;1.55;;;1.45;;
32297;SDS011;18782;48.984;8.548;2022-08-03T07:18:06;4.00;;;1.40;;
32297;SDS011;18782;48.984;8.548;2022-08-03T07:20:35;2.80;;;1.58;;
32297;SDS011;18782;48.984;8.548;2022-08-03T07:23:02;3.97;;;1.73;;
32297;SDS011;18782;48.984;8.548;2022-08-03T07:25:30;2.35;;;1.63;;
32297;SDS011;18782;48.984;8.548;2022-08-03T07:27:58;3.10;;;1.73;;
32297;SDS011;18782;48.984;8.548;2022-08-03T07:30:26;4.82;;;1.48;;
32297;SDS011;18782;48.984;8.548;2022-08-03T07:32:54;3.00;;;1.52;;
32297;SDS011;18782;48.984;8.548;2022-08-03T07:35:21;2.88;;;1.50;;
32297;SDS011;18782;48.984;8.548;2022-08-03T07:37:52;2.83;;;1.50;;
32297;SDS011;18782;48.984;8.548;2022-08-03T07:40:20;3.03;;;1.58;;
32297;SDS011;18782;48.984;8.548;2022-08-03T07:42:53;1.73;;;1.20;;
32297;SDS011;18782;48.984;8.548;2022-08-03T07:45:21;2.33;;;1.60;;
32297;SDS011;18782;48.984;8.548;2022-08-03T07:47:49;5.25;;;1.75;;
32297;SDS011;18782;48.984;8.548;2022-08-03T07:50:19;5.72;;;2.13;;
32297;SDS011;18782;48.984;8.548;2022-08-03T07:52:47;4.00;;;1.63;;
32297;SDS011;18782;48.984;8.548;2022-08-03T07:55:18;2.65;;;1.60;;
32297;SDS011;18782;48.984;8.548;2022-08-03T07:57:46;2.15;;;1.50;;
32297;SDS011;18782;48.984;8.548;2022-08-03T08:00:14;5.00;;;1.70;;
32297;SDS011;18782;48.984;8.548;2022-08-03T08:02:44;3.17;;;1.75;;
32297;SDS011;18782;48.984;8.548;2022-08-03T08:05:12;4.57;;;2.03;;
32297;SDS011;18782;48.984;8.548;2022-08-03T08:07:39;2.72;;;1.40;;
32297;SDS011;18782;48.984;8.548;2022-08-03T08:10:08;3.00;;;1.60;;
32297;SDS011;18782;48.984;8.548;2022-08-03T08:12:37;1.52;;;1.35;;
32297;SDS011;18782;48.984;8.548;2022-08-03T08:15:06;4.20;;;1.50;;
32297;SDS011;18782;48.984;8.548;2022-08-03T08:17:41;3.28;;;1.73;;
32297;SDS011;18782;48.984;8.548;2022-08-03T08:20:10;3.40;;;1.50;;
32297;SDS011;18782;48.984;8.548;2022-08-03T08:22:49;7.25;;;2.47;;
32297;SDS011;18782;48.984;8.548;2022-08-03T08:25:17;2.53;;;1.42;;
32297;SDS011;18782;48.984;8.548;2022-08-03T08:27:47;3.58;;;1.80;;
32297;SDS011;18782;48.984;8.548;2022-08-03T08:30:35;3.28;;;1.52;;
32297;SDS011;18782;48.984;8.548;2022-08-03T08:33:03;3.40;;;1.75;;
32297;SDS011;18782;48.984;8.548;2022-08-03T08:35:30;2.85;;;1.48;;
32297;SDS011;18782;48.984;8.548;2022-08-03T08:37:58;9.30;;;2.22;;
32297;SDS011;18782;48.984;8.548;2022-08-03T08:40:31;5.22;;;1.73;;
32297;SDS011;18782;48.984;8.548;2022-08-03T08:43:00;2.55;;;1.80;;
32297;SDS011;18782;48.984;8.548;2022-08-03T08:45:28;2.38;;;1.80;;
32297;SDS011;18782;48.984;8.548;2022-08-03T08:47:56;2.97;;;1.60;;
32297;SDS011;18782;48.984;8.548;2022-08-03T08:50:33;3.65;;;1.40;;
32297;SDS011;18782;48.984;8.548;2022-08-03T08:53:03;6.72;;;1.50;;
32297;SDS011;18782;48.984;8.548;2022-08-03T08:55:37;1.67;;;1.48;;
32297;SDS011;18782;48.984;8.548;2022-08-03T08:58:27;5.07;;;1.42;;
32297;SDS011;18782;48.984;8.548;2022-08-03T09:00:56;2.00;;;1.48;;
32297;SDS011;18782;48.984;8.548;2022-08-03T09:03:24;1.90;;;1.40;;
32297;SDS011;18782;48.984;8.548;2022-08-03T09:05:56;4.25;;;1.35;;
32297;SDS011;18782;48.984;8.548;2022-08-03T09:08:27;3.72;;;1.33;;
32297;SDS011;18782;48.984;8.548;2022-08-03T09:10:55;3.15;;;1.10;;
32297;SDS011;18782;48.984;8.548;2022-08-03T09:13:23;1.77;;;1.20;;
32297;SDS011;18782;48.984;8.548;2022-08-03T09:18:40;1.88;;;1.33;;
32297;SDS011;18782;48.984;8.548;2022-08-03T09:21:11;1.20;;;0.98;;
32297;SDS011;18782;48.984;8.548;2022-08-03T09:23:57;3.38;;;1.30;;
32297;SDS011;18782;48.984;8.548;2022-08-03T09:26:30;3.15;;;1.48;;
32297;SDS011;18782;48.984;8.548;2022-08-03T09:29:00;2.42;;;1.00;;
32297;SDS011;18782;48.984;8.548;2022-08-03T09:31:38;3.97;;;1.73;;
32297;SDS011;18782;48.984;8.548;2022-08-03T09:34:09;4.47;;;1.55;;
32297;SDS011;18782;48.984;8.548;2022-08-03T09:36:39;3.42;;;1.60;;
32297;SDS011;18782;48.984;8.548;2022-08-03T09:39:08;3.40;;;1.23;;
32297;SDS011;18782;48.984;8.548;2022-08-03T09:41:38;3.65;;;1.30;;
32297;SDS011;18782;48.984;8.548;2022-08-03T09:44:07;2.70;;;1.48;;
32297;SDS011;18782;48.984;8.548;2022-08-03T09:46:52;2.67;;;1.48;;
32297;SDS011;18782;48.984;8.548;2022-08-03T09:49:22;2.08;;;1.50;;
32297;SDS011;18782;48.984;8.548;2022-08-03T09:51:51;11.55;;;1.55;;
32297;SDS011;18782;48.984;8.548;2022-08-03T09:54:39;1.13;;;0.88;;
32297;SDS011;18782;48.984;8.548;2022-08-03T09:57:08;1.25;;;1.15;;
32297;SDS011;18782;48.984;8.548;2022-08-03T09:59:47;1.98;;;1.10;;
32297;SDS011;18782;48.984;8.548;2022-08-03T10:02:23;1.65;;;1.20;;
32297;SDS011;18782;48.984;8.548;2022-08-03T10:04:52;3.10;;;1.30;;
32297;SDS011;18782;48.984;8.548;2022-08-03T10:07:21;1.38;;;1.10;;
32297;SDS011;18782;48.984;8.548;2022-08-03T10:09:54;3.22;;;1.25;;
32297;SDS011;18782;48.984;8.548;2022-08-03T10:12:43;1.95;;;1.25;;
32297;SDS011;18782;48.984;8.548;2022-08-03T10:15:13;2.28;;;1.17;;
32297;SDS011;18782;48.984;8.548;2022-08-03T10:18:02;1.95;;;1.30;;
32297;SDS011;18782;48.984;8.548;2022-08-03T10:20:30;1.70;;;1.05;;
32297;SDS011;18782;48.984;8.548;2022-08-03T10:23:02;3.15;;;1.13;;
32297;SDS011;18782;48.984;8.548;2022-08-03T10:25:32;1.50;;;1.20;;
32297;SDS011;18782;48.984;8.548;2022-08-03T10:28:02;5.13;;;1.30;;
32297;SDS011;18782;48.984;8.548;2022-08-03T10:30:31;1.90;;;1.08;;
32297;SDS011;18782;48.984;8.548;2022-08-03T10:33:00;2.60;;;1.23;;
32297;SDS011;18782;48.984;8.548;2022-08-03T10:35:56;1.98;;;1.27;;
32297;SDS011;18782;48.984;8.548;2022-08-03T10:38:28;3.05;;;1.20;;
32297;SDS011;18782;48.984;8.548;2022-08-03T10:43:29;2.28;;;1.23;;
32297;SDS011;18782;48.984;8.548;2022-08-03T10:46:02;2.65;;;1.30;;
32297;SDS011;18782;48.984;8.548;2022-08-03T10:48:34;3.05;;;1.20;;
32297;SDS011;18782;48.984;8.548;2022-08-03T10:51:02;2.03;;;1.50;;
32297;SDS011;18782;48.984;8.548;2022-08-03T10:53:33;2.28;;;1.25;;
32297;SDS011;18782;48.984;8.548;2022-08-03T10:56:02;2.83;;;1.10;;
32297;SDS011;18782;48.984;8.548;2022-08-03T10:59:08;1.80;;;1.30;;
32297;SDS011;18782;48.984;8.548;2022-08-03T11:01:48;1.77;;;1.10;;
32297;SDS011;18782;48.984;8.548;2022-08-03T11:04:28;2.13;;;1.20;;
32297;SDS011;18782;48.984;8.548;2022-08-03T11:09:48;1.83;;;1.40;;
32297;SDS011;18782;48.984;8.548;2022-08-03T11:12:20;3.05;;;1.20;;
32297;SDS011;18782;48.984;8.548;2022-08-03T11:14:58;1.63;;;1.00;;
32297;SDS011;18782;48.984;8.548;2022-08-03T11:17:26;1.77;;;1.13;;
32297;SDS011;18782;48.984;8.548;2022-08-03T11:19:55;1.42;;;0.95;;
32297;SDS011;18782;48.984;8.548;2022-08-03T11:22:24;1.23;;;1.05;;
32297;SDS011;18782;48.984;8.548;2022-08-03T11:25:12;4.45;;;0.95;;
32297;SDS011;18782;48.984;8.548;2022-08-03T11:30:55;1.95;;;1.25;;
32297;SDS011;18782;48.984;8.548;2022-08-03T11:34:07;5.15;;;1.10;;
32297;SDS011;18782;48.984;8.548;2022-08-03T11:39:49;4.18;;;2.85;;
32297;SDS011;18782;48.984;8.548;2022-08-03T11:42:38;2.92;;;1.17;;
32297;SDS011;18782;48.984;8.548;2022-08-03T11:45:15;1.58;;;0.98;;
32297;SDS011;18782;48.984;8.548;2022-08-03T11:47:45;1.67;;;0.93;;
32297;SDS011;18782;48.984;8.548;2022-08-03T11:50:17;1.00;;;0.90;;
32297;SDS011;18782;48.984;8.548;2022-08-03T11:52:46;3.00;;;1.00;;
32297;SDS011;18782;48.984;8.548;2022-08-03T11:55:17;1.45;;;1.02;;
32297;SDS011;18782;48.984;8.548;2022-08-03T11:57:47;1.60;;;0.85;;
32297;SDS011;18782;48.984;8.548;2022-08-03T12:00:36;1.52;;;0.95;;
32297;SDS011;18782;48.984;8.548;2022-08-03T12:03:04;2.58;;;0.90;;
32297;SDS011;18782;48.984;8.548;2022-08-03T12:05:37;2.40;;;1.10;;
32297;SDS011;18782;48.984;8.548;2022-08-03T12:08:27;3.28;;;1.92;;
32297;SDS011;18782;48.984;8.548;2022-08-03T12:11:00;2.75;;;1.70;;
32297;SDS011;18782;48.984;8.548;2022-08-03T12:16:25;2.17;;;0.90;;
32297;SDS011;18782;48.984;8.548;2022-08-03T12:18:54;2.15;;;1.30;;
32297;SDS011;18782;48.984;8.548;2022-08-03T12:21:22;2.75;;;1.00;;
32297;SDS011;18782;48.984;8.548;2022-08-03T12:23:50;2.05;;;1.08;;
32297;SDS011;18782;48.984;8.548;2022-08-03T12:26:25;2.17;;;1.27;;
32297;SDS011;18782;48.984;8.548;2022-08-03T12:28:54;2.08;;;1.05;;
32297;SDS011;18782;48.984;8.548;2022-08-03T12:31:21;2.28;;;1.25;;
32297;SDS011;18782;48.984;8.548;2022-08-03T12:33:53;3.13;;;1.20;;
32297;SDS011;18782;48.984;8.548;2022-08-03T12:36:24;1.38;;;1.05;;
32297;SDS011;18782;48.984;8.548;2022-08-03T12:38:53;1.48;;;0.90;;
32297;SDS011;18782;48.984;8.548;2022-08-03T12:41:28;1.90;;;1.13;;
32297;SDS011;18782;48.984;8.548;2022-08-03T12:43:56;1.42;;;0.98;;
32297;SDS011;18782;48.984;8.548;2022-08-03T12:46:28;2.00;;;1.00;;
32297;SDS011;18782;48.984;8.548;2022-08-03T12:49:02;1.80;;;1.02;;
32297;SDS011;18782;48.984;8.548;2022-08-03T12:51:32;3.80;;;1.13;;
32297;SDS011;18782;48.984;8.548;2022-08-03T12:54:02;3.10;;;1.30;;
32297;SDS011;18782;48.984;8.548;2022-08-03T12:56:32;1.73;;;1.13;;
32297;SDS011;18782;48.984;8.548;2022-08-03T12:59:00;3.67;;;1.23;;
32297;SDS011;18782;48.984;8.548;2022-08-03T13:01:43;0.93;;;0.85;;
32297;SDS011;18782;48.984;8.548;2022-08-03T13:04:25;1.13;;;0.90;;
32297;SDS011;18782;48.984;8.548;2022-08-03T13:06:55;1.15;;;0.90;;
32297;SDS011;18782;48.984;8.548;2022-08-03T13:09:28;2.28;;;1.20;;
32297;SDS011;18782;48.984;8.548;2022-08-03T13:12:06;2.55;;;1.15;;
32297;SDS011;18782;48.984;8.548;2022-08-03T13:14:34;2.60;;;0.90;;
32297;SDS011;18782;48.984;8.548;2022-08-03T13:17:02;2.88;;;0.85;;
32297;SDS011;18782;48.984;8.548;2022-08-03T13:19:31;1.48;;;0.90;;
32297;SDS011;18782;48.984;8.548;2022-08-03T13:21:59;1.40;;;0.80;;
32297;SDS011;18782;48.984;8.548;2022-08-03T13:24:30;2.17;;;0.93;;
32297;SDS011;18782;48.984;8.548;2022-08-03T13:26:58;1.05;;;0.85;;
32297;SDS011;18782;48.984;8.548;2022-08-03T13:29:48;2.22;;;0.93;;
32297;SDS011;18782;48.984;8.548;2022-08-03T13:32:18;1.75;;;1.00;;
32297;SDS011;18782;48.984;8.548;2022-08-03T13:34:47;2.38;;;0.90;;
32297;SDS011;18782;48.984;8.548;2022-08-03T13:37:14;0.88;;;0.73;;
32297;SDS011;18782;48.984;8.548;2022-08-03T13:39:42;2.25;;;0.90;;
32297;SDS011;18782;48.984;8.548;2022-08-03T13:42:25;1.23;;;0.88;;
32297;SDS011;18782;48.984;8.548;2022-08-03T13:44:55;2.10;;;1.60;;
32297;SDS011;18782;48.984;8.548;2022-08-03T13:47:23;2.72;;;1.50;;
32297;SDS011;18782;48.984;8.548;2022-08-03T13:49:51;1.63;;;1.20;;
32297;SDS011;18782;48.984;8.548;2022-08-03T13:52:27;2.90;;;0.80;;
32297;SDS011;18782;48.984;8.548;2022-08-03T13:54:55;1.80;;;1.10;;
32297;SDS011;18782;48.984;8.548;2022-08-03T13:57:23;2.80;;;0.95;;
32297;SDS011;18782;48.984;8.548;2022-08-03T14:00:13;2.55;;;0.90;;
32297;SDS011;18782;48.984;8.548;2022-08-03T14:02:54;1.00;;;0.90;;
32297;SDS011;18782;48.984;8.548;2022-08-03T14:05:38;1.42;;;0.95;;
32297;SDS011;18782;48.984;8.548;2022-08-03T14:08:06;2.97;;;1.00;;
32297;SDS011;18782;48.984;8.548;2022-08-03T14:10:35;2.70;;;1.00;;
32297;SDS011;18782;48.984;8.548;2022-08-03T14:13:04;2.45;;;0.80;;
32297;SDS011;18782;48.984;8.548;2022-08-03T14:15:33;1.20;;;0.73;;
32297;SDS011;18782;48.984;8.548;2022-08-03T14:18:04;0.93;;;0.65;;
32297;SDS011;18782;48.984;8.548;2022-08-03T14:20:32;2.60;;;0.80;;
32297;SDS011;18782;48.984;8.548;2022-08-03T14:23:05;1.50;;;0.80;;
32297;SDS011;18782;48.984;8.548;2022-08-03T14:25:33;1.55;;;0.82;;
32297;SDS011;18782;48.984;8.548;2022-08-03T14:28:16;2.05;;;1.02;;
32297;SDS011;18782;48.984;8.548;2022-08-03T14:30:45;1.10;;;1.00;;
32297;SDS011;18782;48.984;8.548;2022-08-03T14:33:13;1.30;;;1.00;;
32297;SDS011;18782;48.984;8.548;2022-08-03T14:35:41;2.83;;;0.80;;
32297;SDS011;18782;48.984;8.548;2022-08-03T14:38:09;2.45;;;0.75;;
32297;SDS011;18782;48.984;8.548;2022-08-03T14:40:37;2.03;;;1.10;;
32297;SDS011;18782;48.984;8.548;2022-08-03T14:43:04;1.67;;;0.93;;
32297;SDS011;18782;48.984;8.548;2022-08-03T14:45:32;2.95;;;1.00;;
32297;SDS011;18782;48.984;8.548;2022-08-03T14:48:01;1.10;;;0.90;;
32297;SDS011;18782;48.984;8.548;2022-08-03T14:50:50;1.88;;;1.00;;
32297;SDS011;18782;48.984;8.548;2022-08-03T14:53:20;1.77;;;1.17;;
32297;SDS011;18782;48.984;8.548;2022-08-03T14:55:48;1.02;;;0.93;;
32297;SDS011;18782;48.984;8.548;2022-08-03T14:58:18;1.30;;;1.20;;
32297;SDS011;18782;48.984;8.548;2022-08-03T15:00:47;1.80;;;1.00;;
32297;SDS011;18782;48.984;8.548;2022-08-03T15:03:17;1.20;;;1.02;;
32297;SDS011;18782;48.984;8.548;2022-08-03T15:05:48;2.58;;;0.85;;
32297;SDS011;18782;48.984;8.548;2022-08-03T15:08:16;3.35;;;1.00;;
32297;SDS011;18782;48.984;8.548;2022-08-03T15:10:43;3.00;;;0.90;;
32297;SDS011;18782;48.984;8.548;2022-08-03T15:13:14;2.38;;;0.80;;
32297;SDS011;18782;48.984;8.548;2022-08-03T15:15:42;0.80;;;0.70;;
32297;SDS011;18782;48.984;8.548;2022-08-03T15:18:10;1.45;;;0.90;;
32297;SDS011;18782;48.984;8.548;2022-08-03T15:20:39;1.85;;;1.00;;
32297;SDS011;18782;48.984;8.548;2022-08-03T15:23:11;1.10;;;0.90;;
32297;SDS011;18782;48.984;8.548;2022-08-03T15:25:39;1.30;;;1.00;;
32297;SDS011;18782;48.984;8.548;2022-08-03T15:28:27;2.72;;;0.90;;
32297;SDS011;18782;48.984;8.548;2022-08-03T15:30:55;1.23;;;0.80;;
32297;SDS011;18782;48.984;8.548;2022-08-03T15:33:23;1.83;;;0.90;;
32297;SDS011;18782;48.984;8.548;2022-08-03T15:35:52;5.18;;;1.30;;